Nearby METAR Reports

 

YCOM - Cooma Airport, NSW, AU
Distance from station: NE 158km
Updated: 19/10/2018 04:00
Clear
Clear
 Wind from N
Wind: N 9 km/h
Temperature: 6°C
Wind Chill: 4°C
Dew Point: 6°C
Humidity: 100%
Barometer: 1018 hPa
Clouds: Clear
Visibility: 10 km
2018/10/18 17:00 YCOM 181700Z AUTO 35005KT 9999 // NCD 06/06 Q1018
YMAY - Albury Airport, NSW, AU
Distance from station: NNW 165km
Updated: 19/10/2018 05:00
Clear
Clear
 Wind from calm
Wind: Calm
Temperature: 10°C
Dew Point: 10°C
Humidity: 100%
Barometer: 1017 hPa
Clouds: Clear
Visibility: 10 km
2018/10/18 18:00 YMAY 181800Z AUTO 00000KT 9999 // NCD 10/10 Q1017
 
YWGT - Wangaratta Airport, Victoria, AU
Distance from station: NW 172km
Updated: 19/10/2018 05:00

 Wind from calm
Wind: Calm
Temperature: 6°C
Dew Point: 6°C
Humidity: 100%
Barometer: 1016 hPa
Visibility: 0 km
2018/10/18 18:00 YWGT 181800Z AUTO 00000KT 0300 // ////// 06/06 Q1016
YMER - Merimbula Airport, NSW, AU
Distance from station: ENE 192km
Updated: 19/10/2018 05:00
Clear
Clear
 Wind from SSW
Wind: SSW 6 km/h
Temperature: 11°C
Dew Point: 10°C
Humidity: 94%
Barometer: 1015 hPa
Clouds: Clear
Visibility: 10 km
2018/10/18 18:00 YMER 181800Z AUTO 20003KT 9999 // NCD 11/10 Q1015
 
YSWG - Wagga Wagga Airport, NSW, AU
Distance from station: N 251km
Updated: 19/10/2018 05:00
Clear
Clear
 Wind from E
Wind: E 7 km/h
Temperature: 10°C
Wind Chill: 9°C
Dew Point: 10°C
Humidity: 100%
Barometer: 1016 hPa
Clouds: Clear
Visibility: 10 km
2018/10/18 18:00 YSWG 181800Z AUTO 10004KT 9999 // NCD 10/10 Q1016
YMEN - Essendon Airport, Victoria, AU
Distance from station: W 259km
Updated: 19/10/2018 05:00
Clear
Clear
 Wind from N
Wind: N 9 km/h
Temperature: 12°C
Dew Point: 11°C
Humidity: 94%
Barometer: 1014 hPa
Clouds: Clear
Visibility: 10 km
2018/10/18 18:00 YMEN 181800Z AUTO 36005KT 9999 // NCD 12/11 Q1014
 
YSCB - Canberra Airport, ACT, AU
Distance from station: NNE 263km
Updated: 19/10/2018 05:00
Clear
Clear
 Wind from calm
Wind: Calm
Temperature: 6°C
Dew Point: 5°C
Humidity: 93%
Barometer: 1018 hPa
Clouds: Clear
Visibility: 10 km
2018/10/18 18:00 YSCB 181800Z AUTO 00000KT 9999 // NCD 06/05 Q1018
YMML - Melbourne Airport, Victoria, AU
Distance from station: W 266km
Updated: 19/10/2018 05:00
Clear
Clear
 Wind from N
Wind: N 15 km/h
Temperature: 11°C
Dew Point: 9°C
Humidity: 88%
Barometer: 1014 hPa
Summary: Clear
Visibility: greater than 10 km
2018/10/18 18:00 YMML 181800Z 36008KT CAVOK 11/09 Q1014